Atlanta, Georgia
Traffic Map
Current Weather Conditions
Atlanta, Georgia
Few Clouds
Few Clouds
46°
Feels Like: 46°
Wind Chill: 46° Ceiling: Unl
Heat Index: 46° Visibility: 10mi
Dew Point: 15° Wind: 0mph
Humidity: 29% Direction: ° ()
Pressure: 30.42in Gusts: 0mph
Raw Report DataKATL 102252Z 00000KT 10SM FEW200 08/M09 A3042 RMK AO2 SLP309 T00781094
Traffic Incident Summary
Active as of:
Severity:
Category:
InformationThere was an issue retrieving the traffic information for this location. Please try a different location or try again shortly.
Advertisements
Track Severe Weather on mobile